PRIVATE WETTERSTATION BILLIGHEIM-ALLFELD                       ZURCK
Wetterdaten: Dienstag, 18.02.2014
Datum Zeit Temp. A. Temp. A. min Temp. A. max Feuchte A. Luftdruck Regen Wind Richtung Richtung Sonnenschein ET Solar Taupunkt Windchill Windben Empfang
18.02.2014 00:00 0,9 C 0,9 C 0,9 C 87 % 1017,9 hPa 0,0 l/m 0,0 km/h (0 Bft) NW 315 0 min 0,000 mm 0 W/m -1,0 C 0,9 C 3,2 km/h (1 Bft) 100 %
18.02.2014 00:10 0,8 C 0,8 C 0,9 C 87 % 1017,9 hPa 0,0 l/m 0,0 km/h (0 Bft) N 0 0 min 0,000 mm 0 W/m -1,1 C 0,8 C 0,0 km/h (0 Bft) 100 %
18.02.2014 00:20 0,6 C 0,6 C 0,8 C 87 % 1018,0 hPa 0,0 l/m 0,0 km/h (0 Bft) NW 315 0 min 0,000 mm 0 W/m -1,3 C 0,6 C 3,2 km/h (1 Bft) 100 %
18.02.2014 00:30 0,6 C 0,6 C 0,6 C 87 % 1018,0 hPa 0,0 l/m 0,0 km/h (0 Bft) N 0 0 min 0,000 mm 0 W/m -1,3 C 0,6 C 0,0 km/h (0 Bft) 88 %
18.02.2014 00:40 0,6 C 0,6 C 0,6 C 88 % 1018,0 hPa 0,0 l/m 0,0 km/h (0 Bft) N 0 0 min 0,000 mm 0 W/m -1,2 C 0,6 C 0,0 km/h (0 Bft) 100 %
18.02.2014 00:50 0,6 C 0,6 C 0,6 C 87 % 1018,1 hPa 0,0 l/m 0,0 km/h (0 Bft) NW 315 0 min 0,000 mm 0 W/m -1,3 C 0,6 C 3,2 km/h (1 Bft) 100 %
18.02.2014 01:00 0,2 C 0,2 C 0,6 C 87 % 1018,4 hPa 0,0 l/m 0,0 km/h (0 Bft) NW 315 0 min 0,000 mm 0 W/m -1,7 C 0,2 C 3,2 km/h (1 Bft) 100 %
18.02.2014 01:10 -0,2 C -0,2 C 0,2 C 87 % 1018,4 hPa 0,0 l/m 0,0 km/h (0 Bft) NW 315 0 min 0,000 mm 0 W/m -2,1 C -0,2 C 1,6 km/h (1 Bft) 100 %
18.02.2014 01:20 -0,5 C -0,5 C -0,2 C 88 % 1018,3 hPa 0,0 l/m 0,0 km/h (0 Bft) N 0 0 min 0,000 mm 0 W/m -2,2 C -0,5 C 0,0 km/h (0 Bft) 100 %
18.02.2014 01:30 -0,5 C -0,6 C -0,5 C 88 % 1018,2 hPa 0,0 l/m 0,0 km/h (0 Bft) NW 315 0 min 0,000 mm 0 W/m -2,2 C -0,5 C 1,6 km/h (1 Bft) 100 %
18.02.2014 01:40 -0,4 C -0,5 C -0,4 C 88 % 1018,3 hPa 0,0 l/m 0,0 km/h (0 Bft) N 0 0 min 0,000 mm 0 W/m -2,1 C -0,4 C 0,0 km/h (0 Bft) 100 %
18.02.2014 01:50 -0,4 C -0,5 C -0,4 C 88 % 1018,3 hPa 0,0 l/m 0,0 km/h (0 Bft) NW 315 0 min 0,000 mm 0 W/m -2,1 C -0,4 C 1,6 km/h (1 Bft) 100 %
18.02.2014 02:00 -0,7 C -0,7 C -0,4 C 88 % 1018,2 hPa 0,0 l/m 0,0 km/h (0 Bft) NW 315 0 min 0,000 mm 0 W/m -2,4 C -0,7 C 3,2 km/h (1 Bft) 100 %
18.02.2014 02:10 -0,9 C -0,9 C -0,7 C 88 % 1017,9 hPa 0,0 l/m 0,0 km/h (0 Bft) NW 315 0 min 0,000 mm 0 W/m -2,6 C -0,9 C 3,2 km/h (1 Bft) 100 %
18.02.2014 02:20 -0,9 C -0,9 C -0,8 C 88 % 1017,8 hPa 0,0 l/m 0,0 km/h (0 Bft) NW 315 0 min 0,000 mm 0 W/m -2,6 C -0,9 C 1,6 km/h (1 Bft) 100 %
18.02.2014 02:30 -1,0 C -1,0 C -0,9 C 88 % 1017,7 hPa 0,0 l/m 0,0 km/h (0 Bft) NW 315 0 min 0,000 mm 0 W/m -2,7 C -1,0 C 1,6 km/h (1 Bft) 100 %
18.02.2014 02:40 -1,1 C -1,1 C -1,0 C 88 % 1017,8 hPa 0,0 l/m 0,0 km/h (0 Bft) NW 315 0 min 0,000 mm 0 W/m -2,8 C -1,1 C 1,6 km/h (1 Bft) 100 %
18.02.2014 02:50 -1,2 C -1,2 C -1,1 C 88 % 1017,8 hPa 0,0 l/m 0,0 km/h (0 Bft) NW 315 0 min 0,000 mm 0 W/m -2,9 C -1,2 C 3,2 km/h (1 Bft) 100 %
18.02.2014 03:00 -1,2 C -1,3 C -1,2 C 88 % 1017,6 hPa 0,0 l/m 0,0 km/h (0 Bft) N 0 0 min 0,000 mm 0 W/m -2,9 C -1,2 C 0,0 km/h (0 Bft) 97 %
18.02.2014 03:10 -1,2 C -1,2 C -1,2 C 88 % 1017,5 hPa 0,0 l/m 0,0 km/h (0 Bft) N 0 0 min 0,000 mm 0 W/m -2,9 C -1,2 C 0,0 km/h (0 Bft) 97 %
18.02.2014 03:20 -1,1 C -1,2 C -1,1 C 88 % 1017,4 hPa 0,0 l/m 0,0 km/h (0 Bft) NW 315 0 min 0,000 mm 0 W/m -2,8 C -1,1 C 3,2 km/h (1 Bft) 98 %
18.02.2014 03:30 -1,1 C -1,1 C -1,0 C 88 % 1017,2 hPa 0,0 l/m 1,6 km/h (1 Bft) NW 315 0 min 0,000 mm 0 W/m -2,8 C -1,1 C 4,8 km/h (1 Bft) 98 %
18.02.2014 03:40 -1,2 C -1,2 C -1,1 C 88 % 1016,9 hPa 0,0 l/m 0,0 km/h (0 Bft) N 360 0 min 0,000 mm 0 W/m -2,9 C -1,2 C 4,8 km/h (1 Bft) 98 %
18.02.2014 03:50 -1,1 C -1,2 C -1,1 C 88 % 1016,9 hPa 0,0 l/m 0,0 km/h (0 Bft) N 360 0 min 0,000 mm 0 W/m -2,8 C -1,1 C 3,2 km/h (1 Bft) 97 %
18.02.2014 04:00 -1,2 C -1,2 C -1,1 C 88 % 1017,1 hPa 0,0 l/m 0,0 km/h (0 Bft) N 360 0 min 0,000 mm 0 W/m -2,9 C -1,2 C 3,2 km/h (1 Bft) 98 %
18.02.2014 04:10 -1,1 C -1,2 C -1,1 C 88 % 1017,2 hPa 0,0 l/m 0,0 km/h (0 Bft) N 360 0 min 0,000 mm 0 W/m -2,8 C -1,1 C 3,2 km/h (1 Bft) 98 %
18.02.2014 04:20 -0,9 C -1,1 C -0,9 C 88 % 1017,2 hPa 0,0 l/m 0,0 km/h (0 Bft) N 360 0 min 0,000 mm 0 W/m -2,6 C -0,9 C 3,2 km/h (1 Bft) 97 %
18.02.2014 04:30 -0,7 C -0,9 C -0,7 C 88 % 1017,2 hPa 0,0 l/m 0,0 km/h (0 Bft) N 360 0 min 0,000 mm 0 W/m -2,4 C -0,7 C 3,2 km/h (1 Bft) 98 %
18.02.2014 04:40 -0,6 C -0,7 C -0,6 C 88 % 1017,3 hPa 0,0 l/m 0,0 km/h (0 Bft) N 360 0 min 0,000 mm 0 W/m -2,3 C -0,6 C 3,2 km/h (1 Bft) 97 %
18.02.2014 04:50 -0,7 C -0,7 C -0,6 C 88 % 1017,5 hPa 0,0 l/m 0,0 km/h (0 Bft) N 360 0 min 0,000 mm 0 W/m -2,4 C -0,7 C 3,2 km/h (1 Bft) 98 %
18.02.2014 05:00 -0,8 C -0,8 C -0,7 C 88 % 1017,7 hPa 0,0 l/m 1,6 km/h (1 Bft) N 360 0 min 0,000 mm 0 W/m -2,5 C -0,8 C 4,8 km/h (1 Bft) 97 %
18.02.2014 05:10 -0,8 C -0,8 C -0,8 C 88 % 1017,7 hPa 0,0 l/m 1,6 km/h (1 Bft) N-NW 337 0 min 0,000 mm 0 W/m -2,5 C -0,8 C 4,8 km/h (1 Bft) 98 %
18.02.2014 05:20 -0,7 C -0,8 C -0,7 C 88 % 1017,6 hPa 0,0 l/m 1,6 km/h (1 Bft) N-NW 337 0 min 0,000 mm 0 W/m -2,4 C -0,7 C 4,8 km/h (1 Bft) 98 %
18.02.2014 05:30 -0,6 C -0,7 C -0,6 C 88 % 1017,5 hPa 0,0 l/m 1,6 km/h (1 Bft) N-NW 337 0 min 0,000 mm 0 W/m -2,3 C -0,6 C 4,8 km/h (1 Bft) 98 %
18.02.2014 05:40 -0,6 C -0,6 C -0,6 C 88 % 1017,6 hPa 0,0 l/m 0,0 km/h (0 Bft) N-NW 337 0 min 0,000 mm 0 W/m -2,3 C -0,6 C 1,6 km/h (1 Bft) 98 %
18.02.2014 05:50 -0,7 C -0,7 C -0,6 C 88 % 1017,7 hPa 0,0 l/m 0,0 km/h (0 Bft) N-NW 337 0 min 0,000 mm 0 W/m -2,4 C -0,7 C 3,2 km/h (1 Bft) 88 %
18.02.2014 06:00 -0,7 C -0,7 C -0,7 C 88 % 1017,4 hPa 0,0 l/m 0,0 km/h (0 Bft) N-NW 337 0 min 0,000 mm 0 W/m -2,4 C -0,7 C 3,2 km/h (1 Bft) 98 %
18.02.2014 06:10 -0,7 C -0,7 C -0,7 C 88 % 1017,4 hPa 0,0 l/m 0,0 km/h (0 Bft) N-NW 337 0 min 0,000 mm 0 W/m -2,4 C -0,7 C 4,8 km/h (1 Bft) 97 %
18.02.2014 06:20 -0,6 C -0,7 C -0,6 C 88 % 1017,2 hPa 0,0 l/m 1,6 km/h (1 Bft) N-NW 337 0 min 0,000 mm 0 W/m -2,3 C -0,6 C 4,8 km/h (1 Bft) 97 %
18.02.2014 06:30 -0,7 C -0,7 C -0,6 C 89 % 1017,3 hPa 0,0 l/m 1,6 km/h (1 Bft) N-NW 337 0 min 0,000 mm 0 W/m -2,3 C -0,7 C 4,8 km/h (1 Bft) 98 %
18.02.2014 06:40 -0,7 C -0,8 C -0,7 C 88 % 1017,5 hPa 0,0 l/m 0,0 km/h (0 Bft) W-NW 292 0 min 0,000 mm 0 W/m -2,4 C -0,7 C 4,8 km/h (1 Bft) 97 %
18.02.2014 06:50 -0,6 C -0,7 C -0,6 C 88 % 1017,3 hPa 0,0 l/m 0,0 km/h (0 Bft) NW 315 0 min 0,000 mm 0 W/m -2,3 C -0,6 C 3,2 km/h (1 Bft) 97 %
18.02.2014 07:00 -0,5 C -0,6 C -0,5 C 88 % 1017,0 hPa 0,0 l/m 0,0 km/h (0 Bft) NW 315 0 min 0,000 mm 0 W/m -2,2 C -0,5 C 4,8 km/h (1 Bft) 98 %
18.02.2014 07:10 -0,3 C -0,5 C -0,3 C 88 % 1016,9 hPa 0,0 l/m 0,0 km/h (0 Bft) SO 135 0 min 0,000 mm 0 W/m -2,0 C -0,3 C 4,8 km/h (1 Bft) 97 %
18.02.2014 07:20 -0,1 C -0,2 C -0,1 C 88 % 1016,9 hPa 0,0 l/m 0,0 km/h (0 Bft) W 270 0 min 0,000 mm 0 W/m -1,8 C -0,1 C 3,2 km/h (1 Bft) 97 %
18.02.2014 07:30 0,3 C -0,1 C 0,3 C 88 % 1017,0 hPa 0,0 l/m 0,0 km/h (0 Bft) W 270 0 min 0,000 mm 0 W/m -1,4 C 0,3 C 4,8 km/h (1 Bft) 98 %
18.02.2014 07:40 0,4 C 0,3 C 0,4 C 89 % 1017,1 hPa 0,0 l/m 0,0 km/h (0 Bft) W-NW 292 0 min 0,000 mm 0 W/m -1,2 C 0,4 C 4,8 km/h (1 Bft) 97 %
18.02.2014 07:50 0,4 C 0,3 C 0,4 C 89 % 1017,1 hPa 0,0 l/m 0,0 km/h (0 Bft) W-NW 292 0 min 0,000 mm 5 W/m -1,2 C 0,4 C 3,2 km/h (1 Bft) 98 %
18.02.2014 08:00 0,6 C 0,4 C 0,6 C 89 % 1017,1 hPa 0,0 l/m 0,0 km/h (0 Bft) NO 45 0 min 0,000 mm 9 W/m -1,0 C 0,6 C 4,8 km/h (1 Bft) 97 %
18.02.2014 08:10 0,7 C 0,6 C 0,7 C 89 % 1017,0 hPa 0,0 l/m 0,0 km/h (0 Bft) NW 315 0 min 0,000 mm 12 W/m -0,9 C 0,7 C 4,8 km/h (1 Bft) 98 %
18.02.2014 08:20 0,8 C 0,7 C 0,8 C 89 % 1017,1 hPa 0,0 l/m 0,0 km/h (0 Bft) N-NO 22 0 min 0,000 mm 21 W/m -0,8 C 0,8 C 1,6 km/h (1 Bft) 98 %
18.02.2014 08:30 1,0 C 0,8 C 1,0 C 89 % 1017,1 hPa 0,0 l/m 0,0 km/h (0 Bft) N-NW 337 0 min 0,000 mm 32 W/m -0,6 C 1,0 C 3,2 km/h (1 Bft) 97 %
18.02.2014 08:40 1,3 C 1,1 C 1,3 C 89 % 1017,1 hPa 0,0 l/m 0,0 km/h (0 Bft) SO 135 0 min 0,000 mm 44 W/m -0,3 C 1,3 C 4,8 km/h (1 Bft) 98 %
18.02.2014 08:50 1,3 C 1,3 C 1,3 C 88 % 1017,2 hPa 0,0 l/m 1,6 km/h (1 Bft) NW 315 0 min 0,000 mm 54 W/m -0,5 C 1,3 C 4,8 km/h (1 Bft) 98 %
18.02.2014 09:00 1,4 C 1,3 C 1,4 C 88 % 1017,2 hPa 0,0 l/m 0,0 km/h (0 Bft) N 360 0 min 0,025 mm 67 W/m -0,4 C 1,4 C 1,6 km/h (1 Bft) 97 %
18.02.2014 09:10 1,6 C 1,4 C 1,6 C 88 % 1017,1 hPa 0,0 l/m 0,0 km/h (0 Bft) N 360 0 min 0,000 mm 79 W/m -0,2 C 1,6 C 3,2 km/h (1 Bft) 98 %
18.02.2014 09:20 1,7 C 1,6 C 1,7 C 88 % 1016,9 hPa 0,0 l/m 1,6 km/h (1 Bft) NW 315 0 min 0,000 mm 98 W/m -0,1 C 1,7 C 4,8 km/h (1 Bft) 100 %
18.02.2014 09:30 1,7 C 1,6 C 1,7 C 88 % 1016,7 hPa 0,0 l/m 0,0 km/h (0 Bft) NW 315 0 min 0,000 mm 109 W/m -0,1 C 1,7 C 1,6 km/h (1 Bft) 97 %
18.02.2014 09:40 1,7 C 1,6 C 1,7 C 88 % 1016,6 hPa 0,0 l/m 0,0 km/h (0 Bft) NW 315 0 min 0,000 mm 121 W/m -0,1 C 1,7 C 3,2 km/h (1 Bft) 99 %
18.02.2014 10:00 2,1 C 1,6 C 2,1 C 88 % 1016,6 hPa 0,0 l/m 0,6 km/h (0 Bft) W-NW 300 0 min 0,051 mm 141 W/m 0,3 C 2,1 C 4,8 km/h (1 Bft) 98 %
18.02.2014 10:10 2,4 C 2,0 C 2,4 C 89 % 1016,5 hPa 0,0 l/m 0,0 km/h (0 Bft) W-NW 300 0 min 0,000 mm 148 W/m 0,8 C 2,4 C 0,0 km/h (0 Bft) 97 %
18.02.2014 10:20 3,1 C 2,4 C 3,1 C 88 % 1016,3 hPa 0,0 l/m 1,3 km/h (1 Bft) O-SO 122 10 min 0,000 mm 172 W/m 1,3 C 3,1 C 8,0 km/h (2 Bft) 98 %
18.02.2014 10:30 3,8 C 3,1 C 3,8 C 86 % 1016,3 hPa 0,0 l/m 1,0 km/h (0 Bft) SO 146 10 min 0,000 mm 221 W/m 1,7 C 3,8 C 6,4 km/h (2 Bft) 97 %
18.02.2014 10:40 4,3 C 3,8 C 4,3 C 85 % 1016,3 hPa 0,0 l/m 0,6 km/h (0 Bft) S-SW 206 10 min 0,000 mm 206 W/m 2,0 C 4,3 C 6,4 km/h (2 Bft) 97 %
18.02.2014 10:50 4,7 C 4,3 C 4,7 C 83 % 1016,2 hPa 0,0 l/m 0,3 km/h (0 Bft) W-NW 286 10 min 0,000 mm 309 W/m 2,1 C 4,7 C 3,2 km/h (1 Bft) 97 %
18.02.2014 11:00 5,4 C 4,7 C 5,4 C 83 % 1016,2 hPa 0,0 l/m 0,6 km/h (0 Bft) W-NW 290 10 min 0,000 mm 408 W/m 2,7 C 5,4 C 4,8 km/h (1 Bft) 97 %
18.02.2014 11:10 6,4 C 5,4 C 6,4 C 82 % 1016,1 hPa 0,0 l/m 0,3 km/h (0 Bft) W-NW 284 10 min 0,076 mm 373 W/m 3,6 C 6,4 C 4,8 km/h (1 Bft) 97 %
18.02.2014 11:20 7,1 C 6,4 C 7,1 C 78 % 1016,2 hPa 0,0 l/m 0,6 km/h (0 Bft) W-NW 284 10 min 0,000 mm 417 W/m 3,5 C 7,1 C 4,8 km/h (1 Bft) 97 %
18.02.2014 11:30 7,7 C 7,1 C 7,7 C 75 % 1016,0 hPa 0,0 l/m 1,3 km/h (1 Bft) S-SO 154 10 min 0,000 mm 439 W/m 3,6 C 7,7 C 8,0 km/h (2 Bft) 98 %
18.02.2014 11:40 7,8 C 7,7 C 7,8 C 71 % 1015,7 hPa 0,0 l/m 2,4 km/h (1 Bft) O-SO 104 10 min 0,000 mm 225 W/m 2,9 C 7,8 C 9,7 km/h (2 Bft) 97 %
18.02.2014 11:50 7,9 C 7,8 C 8,0 C 70 % 1015,7 hPa 0,0 l/m 0,8 km/h (0 Bft) S-SO 156 10 min 0,000 mm 274 W/m 2,8 C 7,9 C 8,0 km/h (2 Bft) 98 %
18.02.2014 12:00 7,7 C 7,7 C 8,0 C 70 % 1015,5 hPa 0,0 l/m 4,9 km/h (1 Bft) S 177 10 min 0,153 mm 230 W/m 2,6 C 7,7 C 14,5 km/h (3 Bft) 98 %
18.02.2014 12:10 7,6 C 7,6 C 7,7 C 71 % 1015,4 hPa 0,0 l/m 1,4 km/h (1 Bft) S 182 10 min 0,000 mm 218 W/m 2,7 C 7,6 C 9,7 km/h (2 Bft) 97 %
18.02.2014 12:20 7,9 C 7,6 C 7,9 C 71 % 1015,4 hPa 0,0 l/m 0,9 km/h (0 Bft) S-SW 197 10 min 0,000 mm 397 W/m 3,0 C 7,9 C 8,0 km/h (2 Bft) 98 %
18.02.2014 12:30 8,3 C 7,9 C 8,3 C 70 % 1015,3 hPa 0,0 l/m 2,8 km/h (1 Bft) S 169 10 min 0,000 mm 322 W/m 3,2 C 8,3 C 9,7 km/h (2 Bft) 97 %
18.02.2014 12:40 8,4 C 8,3 C 8,4 C 67 % 1015,1 hPa 0,0 l/m 1,5 km/h (1 Bft) O-SO 105 10 min 0,000 mm 385 W/m 2,6 C 8,4 C 8,0 km/h (2 Bft) 98 %
18.02.2014 12:50 8,6 C 8,4 C 8,6 C 70 % 1014,9 hPa 0,0 l/m 1,7 km/h (1 Bft) SW 215 10 min 0,000 mm 343 W/m 3,4 C 8,6 C 8,0 km/h (2 Bft) 98 %
18.02.2014 13:00 8,8 C 8,6 C 8,8 C 69 % 1014,8 hPa 0,0 l/m 4,7 km/h (1 Bft) SO 143 10 min 0,152 mm 496 W/m 3,4 C 8,8 C 16,1 km/h (3 Bft) 98 %
18.02.2014 13:10 9,1 C 8,8 C 9,2 C 66 % 1014,6 hPa 0,0 l/m 2,8 km/h (1 Bft) SO 144 10 min 0,000 mm 376 W/m 3,1 C 9,1 C 8,0 km/h (2 Bft) 97 %
18.02.2014 13:20 9,2 C 9,1 C 9,2 C 67 % 1014,5 hPa 0,0 l/m 3,9 km/h (1 Bft) S-SO 150 10 min 0,000 mm 258 W/m 3,4 C 9,2 C 9,7 km/h (2 Bft) 97 %
18.02.2014 13:30 8,9 C 8,9 C 9,2 C 65 % 1014,4 hPa 0,0 l/m 3,6 km/h (1 Bft) SO 129 10 min 0,000 mm 418 W/m 2,7 C 8,9 C 11,3 km/h (2 Bft) 97 %
18.02.2014 13:40 9,2 C 8,9 C 9,2 C 66 % 1014,0 hPa 0,0 l/m 2,5 km/h (1 Bft) S 174 10 min 0,000 mm 394 W/m 3,2 C 9,2 C 9,7 km/h (2 Bft) 97 %
18.02.2014 13:50 9,5 C 9,2 C 9,6 C 64 % 1014,0 hPa 0,0 l/m 2,6 km/h (1 Bft) O-SO 118 10 min 0,000 mm 288 W/m 3,0 C 9,5 C 9,7 km/h (2 Bft) 98 %
18.02.2014 14:00 9,4 C 9,4 C 9,5 C 65 % 1013,9 hPa 0,0 l/m 1,0 km/h (0 Bft) S-SW 207 10 min 0,178 mm 207 W/m 3,2 C 9,4 C 14,5 km/h (3 Bft) 97 %
18.02.2014 14:10 9,4 C 9,4 C 9,4 C 66 % 1013,9 hPa 0,0 l/m 4,6 km/h (1 Bft) S-SW 201 10 min 0,000 mm 174 W/m 3,4 C 9,4 C 14,5 km/h (3 Bft) 97 %
18.02.2014 14:20 9,2 C 9,2 C 9,4 C 67 % 1013,9 hPa 0,0 l/m 1,4 km/h (1 Bft) S-SO 163 10 min 0,000 mm 163 W/m 3,4 C 9,2 C 8,0 km/h (2 Bft) 97 %
18.02.2014 14:30 9,2 C 9,2 C 9,2 C 67 % 1013,7 hPa 0,0 l/m 3,5 km/h (1 Bft) S-SW 205 10 min 0,000 mm 192 W/m 3,4 C 9,2 C 9,7 km/h (2 Bft) 97 %
18.02.2014 14:40 9,3 C 9,2 C 9,3 C 66 % 1013,7 hPa 0,0 l/m 3,9 km/h (1 Bft) SW 225 10 min 0,000 mm 327 W/m 3,3 C 9,3 C 9,7 km/h (2 Bft) 98 %
18.02.2014 14:50 9,7 C 9,3 C 9,7 C 68 % 1013,7 hPa 0,0 l/m 4,3 km/h (1 Bft) W 259 10 min 0,000 mm 304 W/m 4,1 C 9,7 C 11,3 km/h (2 Bft) 98 %
18.02.2014 15:00 10,0 C 9,7 C 10,0 C 66 % 1013,7 hPa 0,0 l/m 2,2 km/h (1 Bft) SW 226 10 min 0,127 mm 234 W/m 3,9 C 10,0 C 8,0 km/h (2 Bft) 97 %
18.02.2014 15:10 10,1 C 10,0 C 10,1 C 64 % 1013,6 hPa 0,0 l/m 2,2 km/h (1 Bft) SW 219 10 min 0,000 mm 176 W/m 3,6 C 10,1 C 8,0 km/h (2 Bft) 98 %
18.02.2014 15:20 9,9 C 9,9 C 10,1 C 66 % 1013,8 hPa 0,0 l/m 2,0 km/h (1 Bft) W-SW 237 10 min 0,000 mm 207 W/m 3,9 C 9,9 C 8,0 km/h (2 Bft) 97 %
18.02.2014 15:30 9,9 C 9,8 C 9,9 C 66 % 1013,6 hPa 0,0 l/m 1,4 km/h (1 Bft) W-SW 240 10 min 0,000 mm 172 W/m 3,9 C 9,9 C 8,0 km/h (2 Bft) 98 %
18.02.2014 15:40 9,8 C 9,8 C 9,9 C 66 % 1013,6 hPa 0,0 l/m 0,0 km/h (0 Bft) SW 221 0 min 0,000 mm 139 W/m 3,8 C 9,8 C 1,6 km/h (1 Bft) 97 %
18.02.2014 15:50 9,6 C 9,6 C 9,8 C 67 % 1013,7 hPa 0,0 l/m 2,6 km/h (1 Bft) SW 232 0 min 0,000 mm 105 W/m 3,8 C 9,6 C 6,4 km/h (2 Bft) 98 %
18.02.2014 16:00 9,5 C 9,5 C 9,7 C 68 % 1013,6 hPa 0,0 l/m 0,7 km/h (0 Bft) SW 230 0 min 0,076 mm 123 W/m 3,9 C 9,5 C 6,4 km/h (2 Bft) 97 %
18.02.2014 16:10 9,5 C 9,4 C 9,5 C 68 % 1013,6 hPa 0,0 l/m 0,3 km/h (0 Bft) SW 230 0 min 0,000 mm 123 W/m 3,9 C 9,5 C 4,8 km/h (1 Bft) 97 %
18.02.2014 16:20 9,6 C 9,4 C 9,6 C 69 % 1013,6 hPa 0,0 l/m 0,0 km/h (0 Bft) SW 230 0 min 0,000 mm 107 W/m 4,2 C 9,6 C 1,6 km/h (1 Bft) 97 %
18.02.2014 16:30 9,6 C 9,6 C 9,6 C 67 % 1013,5 hPa 0,0 l/m 0,4 km/h (0 Bft) SW 230 0 min 0,000 mm 69 W/m 3,8 C 9,6 C 4,8 km/h (1 Bft) 97 %
18.02.2014 16:40 9,3 C 9,3 C 9,6 C 67 % 1013,5 hPa 0,0 l/m 0,0 km/h (0 Bft) SW 230 0 min 0,000 mm 53 W/m 3,5 C 9,3 C 1,6 km/h (1 Bft) 97 %
18.02.2014 16:50 9,1 C 9,1 C 9,3 C 69 % 1013,5 hPa 0,0 l/m 0,6 km/h (0 Bft) SW 230 0 min 0,000 mm 47 W/m 3,7 C 9,1 C 4,8 km/h (1 Bft) 97 %
18.02.2014 17:00 8,9 C 8,9 C 9,1 C 69 % 1013,5 hPa 0,0 l/m 0,0 km/h (0 Bft) SW 230 0 min 0,051 mm 40 W/m 3,5 C 8,9 C 0,0 km/h (0 Bft) 97 %
18.02.2014 17:10 8,6 C 8,6 C 8,9 C 70 % 1013,4 hPa 0,0 l/m 0,0 km/h (0 Bft) SW 230 0 min 0,000 mm 30 W/m 3,4 C 8,6 C 0,0 km/h (0 Bft) 97 %
18.02.2014 17:20 8,4 C 8,4 C 8,6 C 71 % 1013,5 hPa 0,0 l/m 0,0 km/h (0 Bft) SW 230 0 min 0,000 mm 21 W/m 3,5 C 8,4 C 0,0 km/h (0 Bft) 97 %
18.02.2014 17:30 8,2 C 8,2 C 8,4 C 72 % 1013,4 hPa 0,0 l/m 0,0 km/h (0 Bft) SW 230 0 min 0,000 mm 12 W/m 3,5 C 8,2 C 0,0 km/h (0 Bft) 97 %
18.02.2014 17:40 8,0 C 8,0 C 8,2 C 72 % 1013,3 hPa 0,0 l/m 0,0 km/h (0 Bft) SW 230 0 min 0,000 mm 5 W/m 3,3 C 8,0 C 0,0 km/h (0 Bft) 97 %
18.02.2014 17:50 7,7 C 7,7 C 8,0 C 73 % 1013,6 hPa 0,0 l/m 0,0 km/h (0 Bft) SW 230 0 min 0,000 mm 0 W/m 3,2 C 7,7 C 0,0 km/h (0 Bft) 98 %
18.02.2014 18:00 7,4 C 7,4 C 7,7 C 74 % 1013,7 hPa 0,0 l/m 0,0 km/h (0 Bft) SW 230 0 min 0,000 mm 0 W/m 3,1 C 7,4 C 0,0 km/h (0 Bft) 98 %
18.02.2014 18:10 7,2 C 7,2 C 7,4 C 75 % 1013,6 hPa 0,0 l/m 0,0 km/h (0 Bft) SW 230 0 min 0,000 mm 0 W/m 3,1 C 7,2 C 0,0 km/h (0 Bft) 98 %
18.02.2014 18:20 7,2 C 7,2 C 7,2 C 75 % 1013,7 hPa 0,0 l/m 0,0 km/h (0 Bft) SW 230 0 min 0,000 mm 0 W/m 3,1 C 7,2 C 0,0 km/h (0 Bft) 88 %
18.02.2014 18:30 7,1 C 7,1 C 7,2 C 75 % 1013,5 hPa 0,0 l/m 0,1 km/h (0 Bft) SW 230 0 min 0,000 mm 0 W/m 3,0 C 7,1 C 1,6 km/h (1 Bft) 98 %
18.02.2014 18:40 7,0 C 7,0 C 7,1 C 75 % 1013,5 hPa 0,0 l/m 0,3 km/h (0 Bft) SW 230 0 min 0,000 mm 0 W/m 2,9 C 7,0 C 1,6 km/h (1 Bft) 97 %
18.02.2014 18:50 6,7 C 6,7 C 7,0 C 77 % 1013,5 hPa 0,0 l/m 0,0 km/h (0 Bft) SW 230 0 min 0,000 mm 0 W/m 3,0 C 6,7 C 1,6 km/h (1 Bft) 97 %
18.02.2014 19:00 6,3 C 6,3 C 6,7 C 79 % 1013,7 hPa 0,0 l/m 0,1 km/h (0 Bft) SW 230 0 min 0,025 mm 0 W/m 2,9 C 6,3 C 1,6 km/h (1 Bft) 98 %
18.02.2014 19:10 6,0 C 6,0 C 6,3 C 80 % 1013,7 hPa 0,0 l/m 0,0 km/h (0 Bft) SW 230 0 min 0,000 mm 0 W/m 2,8 C 6,0 C 0,0 km/h (0 Bft) 97 %
18.02.2014 19:20 5,8 C 5,8 C 6,0 C 81 % 1013,9 hPa 0,0 l/m 0,0 km/h (0 Bft) SW 230 0 min 0,000 mm 0 W/m 2,8 C 5,8 C 1,6 km/h (1 Bft) 98 %
18.02.2014 19:30 5,7 C 5,7 C 5,8 C 81 % 1013,7 hPa 0,0 l/m 0,0 km/h (0 Bft) SW 230 0 min 0,000 mm 0 W/m 2,7 C 5,7 C 1,6 km/h (1 Bft) 97 %
18.02.2014 19:40 5,6 C 5,6 C 5,7 C 81 % 1013,6 hPa 0,0 l/m 0,0 km/h (0 Bft) SW 230 0 min 0,000 mm 0 W/m 2,6 C 5,6 C 0,0 km/h (0 Bft) 97 %
18.02.2014 19:50 5,6 C 5,6 C 5,6 C 81 % 1013,7 hPa 0,0 l/m 0,0 km/h (0 Bft) SW 230 0 min 0,000 mm 0 W/m 2,6 C 5,6 C 0,0 km/h (0 Bft) 98 %
18.02.2014 20:00 5,4 C 5,4 C 5,6 C 81 % 1013,6 hPa 0,0 l/m 0,0 km/h (0 Bft) SW 230 0 min 0,000 mm 0 W/m 2,4 C 5,4 C 0,0 km/h (0 Bft) 97 %
18.02.2014 20:10 5,3 C 5,3 C 5,4 C 81 % 1013,5 hPa 0,0 l/m 0,3 km/h (0 Bft) SW 230 0 min 0,000 mm 0 W/m 2,3 C 5,3 C 1,6 km/h (1 Bft) 98 %
18.02.2014 20:20 5,2 C 5,2 C 5,3 C 82 % 1013,6 hPa 0,0 l/m 0,4 km/h (0 Bft) SW 230 0 min 0,000 mm 0 W/m 2,4 C 5,2 C 3,2 km/h (1 Bft) 89 %
18.02.2014 20:30 4,8 C 4,8 C 5,2 C 83 % 1013,4 hPa 0,0 l/m 0,1 km/h (0 Bft) W-SW 246 0 min 0,000 mm 0 W/m 2,2 C 4,8 C 1,6 km/h (1 Bft) 98 %
18.02.2014 20:40 4,6 C 4,6 C 4,8 C 84 % 1013,5 hPa 0,0 l/m 0,0 km/h (0 Bft) W-SW 248 0 min 0,000 mm 0 W/m 2,1 C 4,6 C 0,0 km/h (0 Bft) 97 %
18.02.2014 20:50 4,4 C 4,4 C 4,6 C 84 % 1013,6 hPa 0,0 l/m 0,2 km/h (0 Bft) W-SW 248 0 min 0,000 mm 0 W/m 1,9 C 4,4 C 1,6 km/h (1 Bft) 98 %
18.02.2014 21:00 4,2 C 4,2 C 4,4 C 85 % 1013,7 hPa 0,0 l/m 0,5 km/h (0 Bft) W-NW 294 0 min 0,000 mm 0 W/m 1,9 C 4,2 C 3,2 km/h (1 Bft) 97 %
18.02.2014 21:10 4,1 C 4,1 C 4,2 C 87 % 1013,6 hPa 0,0 l/m 0,0 km/h (0 Bft) NW 315 0 min 0,000 mm 0 W/m 2,1 C 4,1 C 3,2 km/h (1 Bft) 100 %
18.02.2014 21:20 4,1 C 4,1 C 4,1 C 87 % 1013,6 hPa 0,0 l/m 0,0 km/h (0 Bft) NW 315 0 min 0,000 mm 0 W/m 2,1 C 4,1 C 3,2 km/h (1 Bft) 92 %
18.02.2014 21:30 4,1 C 4,1 C 4,1 C 87 % 1013,5 hPa 0,0 l/m 0,0 km/h (0 Bft) N 0 0 min 0,000 mm 0 W/m 2,1 C 4,1 C 0,0 km/h (0 Bft) 99 %
18.02.2014 21:40 4,1 C 4,1 C 4,1 C 87 % 1013,5 hPa 0,0 l/m 0,0 km/h (0 Bft) N 0 0 min 0,000 mm 0 W/m 2,1 C 4,1 C 0,0 km/h (0 Bft) 99 %
18.02.2014 21:50 3,9 C 3,9 C 4,1 C 86 % 1013,5 hPa 0,0 l/m 0,0 km/h (0 Bft) N 0 0 min 0,000 mm 0 W/m 1,8 C 3,9 C 0,0 km/h (0 Bft) 100 %
18.02.2014 22:00 3,6 C 3,6 C 3,9 C 86 % 1013,4 hPa 0,0 l/m 0,0 km/h (0 Bft) NW 315 0 min 0,000 mm 0 W/m 1,5 C 3,6 C 3,2 km/h (1 Bft) 100 %
18.02.2014 22:10 3,4 C 3,3 C 3,6 C 87 % 1013,5 hPa 0,0 l/m 0,0 km/h (0 Bft) NW 315 0 min 0,000 mm 0 W/m 1,4 C 3,4 C 1,6 km/h (1 Bft) 100 %
18.02.2014 22:20 3,2 C 3,2 C 3,4 C 87 % 1013,5 hPa 0,0 l/m 0,0 km/h (0 Bft) NW 315 0 min 0,000 mm 0 W/m 1,2 C 3,2 C 1,6 km/h (1 Bft) 100 %
18.02.2014 22:30 3,3 C 3,2 C 3,3 C 87 % 1013,7 hPa 0,0 l/m 0,0 km/h (0 Bft) NW 315 0 min 0,000 mm 0 W/m 1,3 C 3,3 C 3,2 km/h (1 Bft) 100 %
18.02.2014 22:40 3,1 C 3,1 C 3,3 C 87 % 1013,7 hPa 0,0 l/m 0,0 km/h (0 Bft) NW 315 0 min 0,000 mm 0 W/m 1,2 C 3,1 C 3,2 km/h (1 Bft) 100 %
18.02.2014 22:50 2,9 C 2,9 C 3,1 C 88 % 1013,8 hPa 0,0 l/m 0,0 km/h (0 Bft) NW 315 0 min 0,000 mm 0 W/m 1,1 C 2,9 C 4,8 km/h (1 Bft) 99 %
18.02.2014 23:00 2,8 C 2,8 C 2,9 C 88 % 1013,9 hPa 0,0 l/m 0,0 km/h (0 Bft) N 0 0 min 0,000 mm 0 W/m 1,0 C 2,8 C 0,0 km/h (0 Bft) 100 %
18.02.2014 23:10 2,7 C 2,7 C 2,8 C 88 % 1013,9 hPa 0,0 l/m 0,0 km/h (0 Bft) NW 315 0 min 0,000 mm 0 W/m 0,9 C 2,7 C 1,6 km/h (1 Bft) 90 %
18.02.2014 23:20 2,7 C 2,7 C 2,7 C 88 % 1013,8 hPa 0,0 l/m 0,0 km/h (0 Bft) N 0 0 min 0,000 mm 0 W/m 0,9 C 2,7 C 0,0 km/h (0 Bft) 100 %
18.02.2014 23:30 2,7 C 2,7 C 2,7 C 88 % 1014,0 hPa 0,0 l/m 0,0 km/h (0 Bft) N 0 0 min 0,000 mm 0 W/m 0,9 C 2,7 C 0,0 km/h (0 Bft) 100 %
18.02.2014 23:40 2,7 C 2,7 C 2,7 C 88 % 1014,0 hPa 0,0 l/m 0,0 km/h (0 Bft) NW 315 0 min 0,000 mm 0 W/m 0,9 C 2,7 C 1,6 km/h (1 Bft) 100 %
18.02.2014 23:50 2,8 C 2,7 C 2,8 C 88 % 1013,9 hPa 0,0 l/m 0,0 km/h (0 Bft) N 0 0 min 0,000 mm 0 W/m 1,0 C 2,8 C 0,0 km/h (0 Bft) 100 %
_ Min-Zeit 03:00 03:00 03:00 13:50 17:40 - 00:00 - - - - - 02:50 02:50 00:10 05:50
Minimum _ -1,3 C -1,3 C -1,2 C 64 % 1013,3 hPa - 0,0 km/h (0 Bft) - - - - - -2,9 C -1,2 C 0,0 km/h (0 Bft) 88 %
_ Max-Zeit 15:10 15:10 15:10 06:30 01:00 00:00 12:00 - - 10:20 14:00 13:00 16:20 15:10 13:00 00:00
Maximum _ 10,1 C 10,0 C 10,1 C 89 % 1018,4 hPa 0,0 l/m 4,9 km/h
S (1 Bft)
- - 10 min 0,178 mm 496 W/m 4,2 C 10,1 C 16,1 km/h
SO (3 Bft)
100 %
Durchschnitt _ 3,8 C 3,7 C 3,9 C 81 % 1015,5 hPa #0,0 l/m 0,6 km/h (0 Bft) SW - #5:20 h #0,914 mm 189 W/m 0,8 C 3,8 C 3,9 km/h (1 Bft) 98 %
PRIVATE WETTERSTATION BILLIGHEIM-ALLFELD - www.neckar-odenwald-wetter.de - Holger Sonntag